sensor_id;sensor_type;location;lat;lon;timestamp;temperature;humidity
3842;DHT22;1936;47.074;15.336;2023-02-11T00:01:30;-5.20;99.90
3842;DHT22;1936;47.074;15.336;2023-02-11T00:03:34;-5.00;99.90
3842;DHT22;1936;47.074;15.336;2023-02-11T00:05:37;-5.10;99.90
3842;DHT22;1936;47.074;15.336;2023-02-11T00:07:41;-5.20;99.90
3842;DHT22;1936;47.074;15.336;2023-02-11T00:09:45;-5.20;99.90
3842;DHT22;1936;47.074;15.336;2023-02-11T00:11:48;-5.20;99.90
3842;DHT22;1936;47.074;15.336;2023-02-11T00:13:53;-5.20;99.90
3842;DHT22;1936;47.074;15.336;2023-02-11T00:15:57;-5.20;99.90
3842;DHT22;1936;47.074;15.336;2023-02-11T00:18:01;-5.20;99.90
3842;DHT22;1936;47.074;15.336;2023-02-11T00:20:05;-5.30;99.90
3842;DHT22;1936;47.074;15.336;2023-02-11T00:22:09;-5.30;99.90
3842;DHT22;1936;47.074;15.336;2023-02-11T00:24:12;-5.40;99.90
3842;DHT22;1936;47.074;15.336;2023-02-11T00:26:18;-5.40;99.90
3842;DHT22;1936;47.074;15.336;2023-02-11T00:28:22;-5.40;99.90
3842;DHT22;1936;47.074;15.336;2023-02-11T00:30:25;-5.50;99.90
3842;DHT22;1936;47.074;15.336;2023-02-11T00:32:30;-5.50;99.90
3842;DHT22;1936;47.074;15.336;2023-02-11T00:34:34;-5.60;99.90
3842;DHT22;1936;47.074;15.336;2023-02-11T00:36:39;-5.60;99.90
3842;DHT22;1936;47.074;15.336;2023-02-11T00:38:43;-5.70;99.90
3842;DHT22;1936;47.074;15.336;2023-02-11T00:40:46;-5.70;99.90
3842;DHT22;1936;47.074;15.336;2023-02-11T00:42:50;-5.80;99.90
3842;DHT22;1936;47.074;15.336;2023-02-11T00:44:53;-5.90;99.90
3842;DHT22;1936;47.074;15.336;2023-02-11T00:46:56;-6.00;99.90
3842;DHT22;1936;47.074;15.336;2023-02-11T00:49:01;-6.00;99.90
3842;DHT22;1936;47.074;15.336;2023-02-11T00:51:05;-5.90;99.90
3842;DHT22;1936;47.074;15.336;2023-02-11T00:53:08;-5.90;99.90
3842;DHT22;1936;47.074;15.336;2023-02-11T00:55:12;-6.00;99.90
3842;DHT22;1936;47.074;15.336;2023-02-11T00:57:15;-5.90;99.90
3842;DHT22;1936;47.074;15.336;2023-02-11T00:59:19;-6.00;99.90
3842;DHT22;1936;47.074;15.336;2023-02-11T01:01:22;-6.00;99.90
3842;DHT22;1936;47.074;15.336;2023-02-11T01:03:26;-5.80;99.90
3842;DHT22;1936;47.074;15.336;2023-02-11T01:05:31;-5.70;99.90
3842;DHT22;1936;47.074;15.336;2023-02-11T01:07:34;-5.60;99.90
3842;DHT22;1936;47.074;15.336;2023-02-11T01:09:38;-5.60;99.90
3842;DHT22;1936;47.074;15.336;2023-02-11T01:11:41;-5.60;99.90
3842;DHT22;1936;47.074;15.336;2023-02-11T01:13:46;-5.60;99.90
3842;DHT22;1936;47.074;15.336;2023-02-11T01:15:50;-5.70;99.90
3842;DHT22;1936;47.074;15.336;2023-02-11T01:17:54;-5.80;99.90
3842;DHT22;1936;47.074;15.336;2023-02-11T01:19:57;-5.80;99.90
3842;DHT22;1936;47.074;15.336;2023-02-11T01:22:02;-5.80;99.90
3842;DHT22;1936;47.074;15.336;2023-02-11T01:24:06;-5.70;99.90
3842;DHT22;1936;47.074;15.336;2023-02-11T01:26:09;-5.70;99.90
3842;DHT22;1936;47.074;15.336;2023-02-11T01:28:15;-5.70;99.90
3842;DHT22;1936;47.074;15.336;2023-02-11T01:30:19;-5.70;99.90
3842;DHT22;1936;47.074;15.336;2023-02-11T01:32:23;-5.80;99.90
3842;DHT22;1936;47.074;15.336;2023-02-11T01:34:26;-5.70;99.90
3842;DHT22;1936;47.074;15.336;2023-02-11T01:36:30;-5.80;99.90
3842;DHT22;1936;47.074;15.336;2023-02-11T01:38:35;-5.80;99.90
3842;DHT22;1936;47.074;15.336;2023-02-11T01:40:38;-5.90;99.90
3842;DHT22;1936;47.074;15.336;2023-02-11T01:42:42;-5.90;99.90
3842;DHT22;1936;47.074;15.336;2023-02-11T01:44:48;-5.90;99.90
3842;DHT22;1936;47.074;15.336;2023-02-11T01:46:52;-5.80;99.90
3842;DHT22;1936;47.074;15.336;2023-02-11T01:48:58;-5.80;99.90
3842;DHT22;1936;47.074;15.336;2023-02-11T01:51:07;-5.70;99.90
3842;DHT22;1936;47.074;15.336;2023-02-11T01:53:12;-5.60;99.90
3842;DHT22;1936;47.074;15.336;2023-02-11T01:55:33;-5.50;99.90
3842;DHT22;1936;47.074;15.336;2023-02-11T01:57:58;-5.50;99.90
3842;DHT22;1936;47.074;15.336;2023-02-11T02:00:09;-5.50;99.90
3842;DHT22;1936;47.074;15.336;2023-02-11T02:02:17;-5.40;99.90
3842;DHT22;1936;47.074;15.336;2023-02-11T02:04:22;-5.40;99.90
3842;DHT22;1936;47.074;15.336;2023-02-11T02:06:33;-5.30;99.90
3842;DHT22;1936;47.074;15.336;2023-02-11T02:08:40;-5.20;99.90
3842;DHT22;1936;47.074;15.336;2023-02-11T02:10:51;-5.10;99.90
3842;DHT22;1936;47.074;15.336;2023-02-11T02:12:57;-5.20;99.90
3842;DHT22;1936;47.074;15.336;2023-02-11T02:15:34;-5.20;99.90
3842;DHT22;1936;47.074;15.336;2023-02-11T02:17:43;-5.20;99.90
3842;DHT22;1936;47.074;15.336;2023-02-11T02:20:10;-5.10;99.90
3842;DHT22;1936;47.074;15.336;2023-02-11T02:22:40;-5.10;99.90
3842;DHT22;1936;47.074;15.336;2023-02-11T02:24:58;-5.00;99.90
3842;DHT22;1936;47.074;15.336;2023-02-11T02:27:28;-5.00;99.90
3842;DHT22;1936;47.074;15.336;2023-02-11T02:32:28;-4.90;99.90
3842;DHT22;1936;47.074;15.336;2023-02-11T02:34:38;-4.70;99.90
3842;DHT22;1936;47.074;15.336;2023-02-11T02:36:47;-4.60;99.90
3842;DHT22;1936;47.074;15.336;2023-02-11T02:38:58;-4.70;99.90
3842;DHT22;1936;47.074;15.336;2023-02-11T02:41:07;-4.80;99.90
3842;DHT22;1936;47.074;15.336;2023-02-11T02:43:11;-5.00;99.90
3842;DHT22;1936;47.074;15.336;2023-02-11T02:45:16;-5.00;99.90
3842;DHT22;1936;47.074;15.336;2023-02-11T02:47:19;-4.90;99.90
3842;DHT22;1936;47.074;15.336;2023-02-11T02:49:24;-4.80;99.90
3842;DHT22;1936;47.074;15.336;2023-02-11T02:51:41;-4.70;99.90
3842;DHT22;1936;47.074;15.336;2023-02-11T02:53:57;-4.50;99.90
3842;DHT22;1936;47.074;15.336;2023-02-11T02:56:06;-4.30;99.90
3842;DHT22;1936;47.074;15.336;2023-02-11T02:58:41;-4.30;99.90
3842;DHT22;1936;47.074;15.336;2023-02-11T03:00:53;-4.40;99.90
3842;DHT22;1936;47.074;15.336;2023-02-11T03:03:14;-4.40;99.90
3842;DHT22;1936;47.074;15.336;2023-02-11T03:05:24;-4.40;99.90
3842;DHT22;1936;47.074;15.336;2023-02-11T03:07:39;-4.30;99.90
3842;DHT22;1936;47.074;15.336;2023-02-11T03:09:48;-4.20;99.90
3842;DHT22;1936;47.074;15.336;2023-02-11T03:11:53;-4.00;99.90
3842;DHT22;1936;47.074;15.336;2023-02-11T03:13:59;-4.00;99.90
3842;DHT22;1936;47.074;15.336;2023-02-11T03:16:07;-4.00;99.90
3842;DHT22;1936;47.074;15.336;2023-02-11T03:18:14;-4.10;99.90
3842;DHT22;1936;47.074;15.336;2023-02-11T03:20:20;-4.20;99.90
3842;DHT22;1936;47.074;15.336;2023-02-11T03:22:29;-4.30;99.90
3842;DHT22;1936;47.074;15.336;2023-02-11T03:24:35;-4.50;99.90
3842;DHT22;1936;47.074;15.336;2023-02-11T03:26:43;-4.50;99.90
3842;DHT22;1936;47.074;15.336;2023-02-11T03:28:53;-4.50;99.90
3842;DHT22;1936;47.074;15.336;2023-02-11T03:31:05;-4.70;99.90
3842;DHT22;1936;47.074;15.336;2023-02-11T03:33:17;-4.80;99.90
3842;DHT22;1936;47.074;15.336;2023-02-11T03:35:26;-4.90;99.90
3842;DHT22;1936;47.074;15.336;2023-02-11T03:37:34;-5.00;99.90
3842;DHT22;1936;47.074;15.336;2023-02-11T03:39:45;-5.10;99.90
3842;DHT22;1936;47.074;15.336;2023-02-11T03:41:51;-5.20;99.90
3842;DHT22;1936;47.074;15.336;2023-02-11T03:43:57;-5.30;99.90
3842;DHT22;1936;47.074;15.336;2023-02-11T03:46:02;-5.20;99.90
3842;DHT22;1936;47.074;15.336;2023-02-11T03:48:10;-5.30;99.90
3842;DHT22;1936;47.074;15.336;2023-02-11T03:50:15;-5.30;99.90
3842;DHT22;1936;47.074;15.336;2023-02-11T03:52:21;-5.30;99.90
3842;DHT22;1936;47.074;15.336;2023-02-11T03:54:28;-5.50;99.90
3842;DHT22;1936;47.074;15.336;2023-02-11T03:56:37;-5.40;99.90
3842;DHT22;1936;47.074;15.336;2023-02-11T03:58:43;-5.50;99.90
3842;DHT22;1936;47.074;15.336;2023-02-11T04:00:47;-5.50;99.90
3842;DHT22;1936;47.074;15.336;2023-02-11T04:02:51;-5.50;99.90
3842;DHT22;1936;47.074;15.336;2023-02-11T04:04:54;-5.60;99.90
3842;DHT22;1936;47.074;15.336;2023-02-11T04:06:58;-5.60;99.90
3842;DHT22;1936;47.074;15.336;2023-02-11T04:09:03;-5.70;99.90
3842;DHT22;1936;47.074;15.336;2023-02-11T04:11:06;-5.80;99.90
3842;DHT22;1936;47.074;15.336;2023-02-11T04:13:09;-5.80;99.90
3842;DHT22;1936;47.074;15.336;2023-02-11T04:15:13;-5.90;99.90
3842;DHT22;1936;47.074;15.336;2023-02-11T04:17:16;-5.80;99.90
3842;DHT22;1936;47.074;15.336;2023-02-11T04:19:19;-5.80;99.90
3842;DHT22;1936;47.074;15.336;2023-02-11T04:21:23;-5.80;99.90
3842;DHT22;1936;47.074;15.336;2023-02-11T04:23:26;-5.90;99.90
3842;DHT22;1936;47.074;15.336;2023-02-11T04:25:31;-5.90;99.90
3842;DHT22;1936;47.074;15.336;2023-02-11T04:27:34;-6.00;99.90
3842;DHT22;1936;47.074;15.336;2023-02-11T04:29:38;-6.00;99.90
3842;DHT22;1936;47.074;15.336;2023-02-11T04:31:41;-5.90;99.90
3842;DHT22;1936;47.074;15.336;2023-02-11T04:33:45;-6.00;99.90
3842;DHT22;1936;47.074;15.336;2023-02-11T04:35:49;-6.00;99.90
3842;DHT22;1936;47.074;15.336;2023-02-11T04:37:52;-6.00;99.90
3842;DHT22;1936;47.074;15.336;2023-02-11T04:39:56;-6.00;99.90
3842;DHT22;1936;47.074;15.336;2023-02-11T04:42:01;-6.10;99.90
3842;DHT22;1936;47.074;15.336;2023-02-11T04:44:04;-6.20;99.90
3842;DHT22;1936;47.074;15.336;2023-02-11T04:46:08;-6.00;99.90
3842;DHT22;1936;47.074;15.336;2023-02-11T04:48:11;-6.10;99.90
3842;DHT22;1936;47.074;15.336;2023-02-11T04:50:15;-6.10;99.90
3842;DHT22;1936;47.074;15.336;2023-02-11T04:52:18;-6.00;99.90
3842;DHT22;1936;47.074;15.336;2023-02-11T04:54:21;-6.00;99.90
3842;DHT22;1936;47.074;15.336;2023-02-11T04:56:25;-5.60;99.90
3842;DHT22;1936;47.074;15.336;2023-02-11T04:58:30;-5.60;99.90
3842;DHT22;1936;47.074;15.336;2023-02-11T05:00:33;-5.70;99.90
3842;DHT22;1936;47.074;15.336;2023-02-11T05:02:35;-5.80;99.90
3842;DHT22;1936;47.074;15.336;2023-02-11T05:04:39;-5.70;99.90
3842;DHT22;1936;47.074;15.336;2023-02-11T05:06:42;-5.60;99.90
3842;DHT22;1936;47.074;15.336;2023-02-11T05:08:46;-5.50;99.90
3842;DHT22;1936;47.074;15.336;2023-02-11T05:10:49;-5.60;99.90
3842;DHT22;1936;47.074;15.336;2023-02-11T05:12:52;-5.60;99.90
3842;DHT22;1936;47.074;15.336;2023-02-11T05:14:58;-5.60;99.90
3842;DHT22;1936;47.074;15.336;2023-02-11T05:17:01;-5.60;99.90
3842;DHT22;1936;47.074;15.336;2023-02-11T05:19:05;-5.70;99.90
3842;DHT22;1936;47.074;15.336;2023-02-11T05:21:09;-5.70;99.90
3842;DHT22;1936;47.074;15.336;2023-02-11T05:23:13;-5.70;99.90
3842;DHT22;1936;47.074;15.336;2023-02-11T05:25:16;-5.70;99.90
3842;DHT22;1936;47.074;15.336;2023-02-11T05:27:19;-5.80;99.90
3842;DHT22;1936;47.074;15.336;2023-02-11T05:29:23;-5.90;99.90
3842;DHT22;1936;47.074;15.336;2023-02-11T05:31:28;-5.90;99.90
3842;DHT22;1936;47.074;15.336;2023-02-11T05:33:31;-5.80;99.90
3842;DHT22;1936;47.074;15.336;2023-02-11T05:35:34;-5.80;99.90
3842;DHT22;1936;47.074;15.336;2023-02-11T05:37:38;-5.90;99.90
3842;DHT22;1936;47.074;15.336;2023-02-11T05:39:41;-6.00;99.90
3842;DHT22;1936;47.074;15.336;2023-02-11T05:41:45;-6.00;99.90
3842;DHT22;1936;47.074;15.336;2023-02-11T05:43:49;-5.90;99.90
3842;DHT22;1936;47.074;15.336;2023-02-11T05:45:53;-5.90;99.90
3842;DHT22;1936;47.074;15.336;2023-02-11T05:47:58;-5.80;99.90
3842;DHT22;1936;47.074;15.336;2023-02-11T05:50:02;-5.80;99.90
3842;DHT22;1936;47.074;15.336;2023-02-11T05:52:05;-5.90;99.90
3842;DHT22;1936;47.074;15.336;2023-02-11T05:54:08;-5.90;99.90
3842;DHT22;1936;47.074;15.336;2023-02-11T05:56:12;-6.00;99.90
3842;DHT22;1936;47.074;15.336;2023-02-11T05:58:16;-5.90;99.90
3842;DHT22;1936;47.074;15.336;2023-02-11T06:00:19;-5.80;99.90
3842;DHT22;1936;47.074;15.336;2023-02-11T06:02:22;-5.70;99.90
3842;DHT22;1936;47.074;15.336;2023-02-11T06:04:27;-5.70;99.90
3842;DHT22;1936;47.074;15.336;2023-02-11T06:06:31;-5.70;99.90
3842;DHT22;1936;47.074;15.336;2023-02-11T06:08:34;-5.70;99.90
3842;DHT22;1936;47.074;15.336;2023-02-11T06:10:40;-5.60;99.90
3842;DHT22;1936;47.074;15.336;2023-02-11T06:12:46;-5.70;99.90
3842;DHT22;1936;47.074;15.336;2023-02-11T06:14:49;-5.70;99.90
3842;DHT22;1936;47.074;15.336;2023-02-11T06:16:53;-5.70;99.90
3842;DHT22;1936;47.074;15.336;2023-02-11T06:18:56;-5.70;99.90
3842;DHT22;1936;47.074;15.336;2023-02-11T06:21:04;-5.80;99.90
3842;DHT22;1936;47.074;15.336;2023-02-11T06:23:08;-5.80;99.90
3842;DHT22;1936;47.074;15.336;2023-02-11T06:25:12;-5.90;99.90
3842;DHT22;1936;47.074;15.336;2023-02-11T06:27:15;-5.80;99.90
3842;DHT22;1936;47.074;15.336;2023-02-11T06:29:19;-5.60;99.90
3842;DHT22;1936;47.074;15.336;2023-02-11T06:31:23;-5.60;99.90
3842;DHT22;1936;47.074;15.336;2023-02-11T06:33:26;-5.50;99.90
3842;DHT22;1936;47.074;15.336;2023-02-11T06:35:30;-5.50;99.90
3842;DHT22;1936;47.074;15.336;2023-02-11T06:37:35;-5.50;99.90
3842;DHT22;1936;47.074;15.336;2023-02-11T06:39:39;-5.40;99.90
3842;DHT22;1936;47.074;15.336;2023-02-11T06:41:42;-5.30;99.90
3842;DHT22;1936;47.074;15.336;2023-02-11T06:43:47;-5.20;99.90
3842;DHT22;1936;47.074;15.336;2023-02-11T06:45:52;-5.00;99.90
3842;DHT22;1936;47.074;15.336;2023-02-11T06:47:56;-4.80;99.90
3842;DHT22;1936;47.074;15.336;2023-02-11T06:49:59;-4.70;99.90
3842;DHT22;1936;47.074;15.336;2023-02-11T06:52:03;-4.40;99.90
3842;DHT22;1936;47.074;15.336;2023-02-11T06:54:07;-4.20;99.90
3842;DHT22;1936;47.074;15.336;2023-02-11T06:56:14;-4.10;99.90
3842;DHT22;1936;47.074;15.336;2023-02-11T06:58:19;-3.90;99.90
3842;DHT22;1936;47.074;15.336;2023-02-11T07:00:22;-3.90;99.90
3842;DHT22;1936;47.074;15.336;2023-02-11T07:02:26;-3.90;99.90
3842;DHT22;1936;47.074;15.336;2023-02-11T07:04:29;-3.70;99.90
3842;DHT22;1936;47.074;15.336;2023-02-11T07:06:33;-3.50;99.90
3842;DHT22;1936;47.074;15.336;2023-02-11T07:08:38;-3.30;99.90
3842;DHT22;1936;47.074;15.336;2023-02-11T07:10:44;-3.20;99.90
3842;DHT22;1936;47.074;15.336;2023-02-11T07:12:48;-3.10;99.90
3842;DHT22;1936;47.074;15.336;2023-02-11T07:14:51;-3.00;99.90
3842;DHT22;1936;47.074;15.336;2023-02-11T07:16:55;-2.90;99.90
3842;DHT22;1936;47.074;15.336;2023-02-11T07:18:59;-2.90;99.90
3842;DHT22;1936;47.074;15.336;2023-02-11T07:21:04;-2.80;99.90
3842;DHT22;1936;47.074;15.336;2023-02-11T07:23:07;-2.70;99.90
3842;DHT22;1936;47.074;15.336;2023-02-11T07:25:11;-2.60;99.90
3842;DHT22;1936;47.074;15.336;2023-02-11T07:27:16;-2.30;99.90
3842;DHT22;1936;47.074;15.336;2023-02-11T07:29:19;-2.10;99.90
3842;DHT22;1936;47.074;15.336;2023-02-11T07:31:24;-2.00;99.90
3842;DHT22;1936;47.074;15.336;2023-02-11T07:33:31;-1.80;99.90
3842;DHT22;1936;47.074;15.336;2023-02-11T07:35:35;-1.80;99.90
3842;DHT22;1936;47.074;15.336;2023-02-11T07:37:38;-1.50;99.90
3842;DHT22;1936;47.074;15.336;2023-02-11T07:39:42;-1.70;99.90
3842;DHT22;1936;47.074;15.336;2023-02-11T07:41:46;-1.70;99.90
3842;DHT22;1936;47.074;15.336;2023-02-11T07:43:52;-1.10;99.90
3842;DHT22;1936;47.074;15.336;2023-02-11T07:45:55;-0.50;99.90
3842;DHT22;1936;47.074;15.336;2023-02-11T07:47:58;-0.20;99.20
3842;DHT22;1936;47.074;15.336;2023-02-11T07:50:02;0.10;97.80
3842;DHT22;1936;47.074;15.336;2023-02-11T07:52:05;0.30;93.10
3842;DHT22;1936;47.074;15.336;2023-02-11T07:54:09;0.40;93.40
3842;DHT22;1936;47.074;15.336;2023-02-11T07:56:14;0.40;92.60
3842;DHT22;1936;47.074;15.336;2023-02-11T07:58:17;0.40;99.20
3842;DHT22;1936;47.074;15.336;2023-02-11T08:00:22;0.70;99.90
3842;DHT22;1936;47.074;15.336;2023-02-11T08:02:26;0.50;99.90
3842;DHT22;1936;47.074;15.336;2023-02-11T08:04:29;0.30;99.90
3842;DHT22;1936;47.074;15.336;2023-02-11T08:06:34;0.20;99.90
3842;DHT22;1936;47.074;15.336;2023-02-11T08:08:37;0.30;99.90
3842;DHT22;1936;47.074;15.336;2023-02-11T08:10:41;0.20;99.90
3842;DHT22;1936;47.074;15.336;2023-02-11T08:12:44;0.30;99.90
3842;DHT22;1936;47.074;15.336;2023-02-11T08:14:47;0.50;99.90
3842;DHT22;1936;47.074;15.336;2023-02-11T08:16:52;0.90;99.90
3842;DHT22;1936;47.074;15.336;2023-02-11T08:18:57;1.80;99.90
3842;DHT22;1936;47.074;15.336;2023-02-11T08:21:04;2.70;99.90
3842;DHT22;1936;47.074;15.336;2023-02-11T08:23:07;3.80;96.20
3842;DHT22;1936;47.074;15.336;2023-02-11T08:25:11;4.50;90.40
3842;DHT22;1936;47.074;15.336;2023-02-11T08:27:14;3.80;88.20
3842;DHT22;1936;47.074;15.336;2023-02-11T08:29:17;4.40;86.20
3842;DHT22;1936;47.074;15.336;2023-02-11T08:33:27;4.30;81.80
3842;DHT22;1936;47.074;15.336;2023-02-11T08:35:33;3.20;91.70
3842;DHT22;1936;47.074;15.336;2023-02-11T08:37:41;3.20;93.90
3842;DHT22;1936;47.074;15.336;2023-02-11T08:39:45;3.00;93.70
3842;DHT22;1936;47.074;15.336;2023-02-11T08:41:50;3.00;89.60
3842;DHT22;1936;47.074;15.336;2023-02-11T08:43:54;2.80;93.10
3842;DHT22;1936;47.074;15.336;2023-02-11T08:45:58;3.20;92.40
3842;DHT22;1936;47.074;15.336;2023-02-11T08:48:03;3.70;75.90
3842;DHT22;1936;47.074;15.336;2023-02-11T08:50:08;4.00;72.90
3842;DHT22;1936;47.074;15.336;2023-02-11T08:52:12;5.20;71.30
3842;DHT22;1936;47.074;15.336;2023-02-11T08:54:15;5.80;64.10
3842;DHT22;1936;47.074;15.336;2023-02-11T08:56:19;5.90;65.10
3842;DHT22;1936;47.074;15.336;2023-02-11T08:58:24;6.30;66.40
3842;DHT22;1936;47.074;15.336;2023-02-11T09:00:27;7.10;58.10
3842;DHT22;1936;47.074;15.336;2023-02-11T09:02:30;7.30;55.90
3842;DHT22;1936;47.074;15.336;2023-02-11T09:04:34;7.80;56.30
3842;DHT22;1936;47.074;15.336;2023-02-11T09:06:39;8.60;55.60
3842;DHT22;1936;47.074;15.336;2023-02-11T09:08:45;9.50;54.60
3842;DHT22;1936;47.074;15.336;2023-02-11T09:17:01;8.20;86.70
3842;DHT22;1936;47.074;15.336;2023-02-11T09:19:05;7.30;50.70
3842;DHT22;1936;47.074;15.336;2023-02-11T09:21:08;7.00;52.60
3842;DHT22;1936;47.074;15.336;2023-02-11T09:23:13;7.10;53.40
3842;DHT22;1936;47.074;15.336;2023-02-11T09:25:19;8.20;52.30
3842;DHT22;1936;47.074;15.336;2023-02-11T09:27:23;9.60;52.80
3842;DHT22;1936;47.074;15.336;2023-02-11T09:35:39;11.50;76.10
3842;DHT22;1936;47.074;15.336;2023-02-11T09:37:42;11.80;42.80
3842;DHT22;1936;47.074;15.336;2023-02-11T09:39:48;11.40;40.60
3842;DHT22;1936;47.074;15.336;2023-02-11T09:42:07;11.40;43.20
3842;DHT22;1936;47.074;15.336;2023-02-11T09:44:17;10.60;43.40
3842;DHT22;1936;47.074;15.336;2023-02-11T09:46:23;10.30;44.00
3842;DHT22;1936;47.074;15.336;2023-02-11T09:48:34;9.60;47.10
3842;DHT22;1936;47.074;15.336;2023-02-11T09:50:43;9.20;48.10
3842;DHT22;1936;47.074;15.336;2023-02-11T09:52:53;8.70;48.50
3842;DHT22;1936;47.074;15.336;2023-02-11T09:55:01;8.90;48.10
3842;DHT22;1936;47.074;15.336;2023-02-11T09:57:08;8.40;48.60
3842;DHT22;1936;47.074;15.336;2023-02-11T09:59:28;9.00;46.60
3842;DHT22;1936;47.074;15.336;2023-02-11T10:01:38;10.00;49.60
3842;DHT22;1936;47.074;15.336;2023-02-11T10:12:43;13.40;82.90
3842;DHT22;1936;47.074;15.336;2023-02-11T10:17:05;12.50;40.80
3842;DHT22;1936;47.074;15.336;2023-02-11T10:19:27;12.50;41.40
3842;DHT22;1936;47.074;15.336;2023-02-11T10:23:41;15.10;66.40
3842;DHT22;1936;47.074;15.336;2023-02-11T10:25:50;15.20;38.60
3842;DHT22;1936;47.074;15.336;2023-02-11T10:27:57;15.10;38.60
3842;DHT22;1936;47.074;15.336;2023-02-11T10:32:21;14.70;39.20
3842;DHT22;1936;47.074;15.336;2023-02-11T10:34:27;14.20;39.50
3842;DHT22;1936;47.074;15.336;2023-02-11T10:36:33;15.60;36.40
3842;DHT22;1936;47.074;15.336;2023-02-11T10:38:37;15.70;36.40
3842;DHT22;1936;47.074;15.336;2023-02-11T10:40:40;16.50;36.40
3842;DHT22;1936;47.074;15.336;2023-02-11T10:47:02;16.10;33.20
3842;DHT22;1936;47.074;15.336;2023-02-11T10:49:06;16.40;36.40
3842;DHT22;1936;47.074;15.336;2023-02-11T10:51:18;17.30;35.70
3842;DHT22;1936;47.074;15.336;2023-02-11T10:55:26;15.10;36.60
3842;DHT22;1936;47.074;15.336;2023-02-11T10:57:33;15.80;37.50
3842;DHT22;1936;47.074;15.336;2023-02-11T10:59:38;14.80;37.80
3842;DHT22;1936;47.074;15.336;2023-02-11T11:01:45;15.70;37.90
3842;DHT22;1936;47.074;15.336;2023-02-11T11:03:51;16.50;36.30
3842;DHT22;1936;47.074;15.336;2023-02-11T11:05:57;16.30;39.70
3842;DHT22;1936;47.074;15.336;2023-02-11T11:08:04;15.60;37.40
3842;DHT22;1936;47.074;15.336;2023-02-11T11:10:25;15.70;36.50
3842;DHT22;1936;47.074;15.336;2023-02-11T11:12:33;15.10;36.20
3842;DHT22;1936;47.074;15.336;2023-02-11T11:14:38;14.80;37.30
3842;DHT22;1936;47.074;15.336;2023-02-11T11:16:51;15.50;36.00
3842;DHT22;1936;47.074;15.336;2023-02-11T11:19:14;14.90;37.00
3842;DHT22;1936;47.074;15.336;2023-02-11T11:21:23;14.50;38.70
3842;DHT22;1936;47.074;15.336;2023-02-11T11:23:28;13.50;38.00
3842;DHT22;1936;47.074;15.336;2023-02-11T11:25:31;14.10;37.50
3842;DHT22;1936;47.074;15.336;2023-02-11T11:27:35;14.70;36.90
3842;DHT22;1936;47.074;15.336;2023-02-11T11:29:45;14.80;36.70
3842;DHT22;1936;47.074;15.336;2023-02-11T11:31:51;14.90;36.70
3842;DHT22;1936;47.074;15.336;2023-02-11T11:33:59;14.70;36.60
3842;DHT22;1936;47.074;15.336;2023-02-11T11:36:06;14.60;37.00
3842;DHT22;1936;47.074;15.336;2023-02-11T11:38:12;14.30;36.20
3842;DHT22;1936;47.074;15.336;2023-02-11T11:40:21;14.10;37.20
3842;DHT22;1936;47.074;15.336;2023-02-11T11:42:28;14.40;36.30
3842;DHT22;1936;47.074;15.336;2023-02-11T11:44:32;14.60;36.60
3842;DHT22;1936;47.074;15.336;2023-02-11T11:46:40;14.60;35.90
3842;DHT22;1936;47.074;15.336;2023-02-11T11:48:46;14.60;36.40
3842;DHT22;1936;47.074;15.336;2023-02-11T11:50:53;14.50;35.90
3842;DHT22;1936;47.074;15.336;2023-02-11T11:53:02;14.50;36.20
3842;DHT22;1936;47.074;15.336;2023-02-11T11:55:13;14.70;34.60
3842;DHT22;1936;47.074;15.336;2023-02-11T11:57:22;14.60;34.00
3842;DHT22;1936;47.074;15.336;2023-02-11T11:59:28;15.10;34.40
3842;DHT22;1936;47.074;15.336;2023-02-11T12:01:43;15.50;33.10
3842;DHT22;1936;47.074;15.336;2023-02-11T12:04:22;15.10;35.60
3842;DHT22;1936;47.074;15.336;2023-02-11T12:06:40;14.50;39.00
3842;DHT22;1936;47.074;15.336;2023-02-11T12:08:53;13.90;39.80
3842;DHT22;1936;47.074;15.336;2023-02-11T12:11:08;13.40;39.60
3842;DHT22;1936;47.074;15.336;2023-02-11T12:13:30;13.10;39.60
3842;DHT22;1936;47.074;15.336;2023-02-11T12:15:42;13.00;39.30
3842;DHT22;1936;47.074;15.336;2023-02-11T12:18:16;13.10;39.10
3842;DHT22;1936;47.074;15.336;2023-02-11T12:20:29;12.90;38.00
3842;DHT22;1936;47.074;15.336;2023-02-11T12:22:42;12.50;40.30
3842;DHT22;1936;47.074;15.336;2023-02-11T12:24:59;12.60;39.20
3842;DHT22;1936;47.074;15.336;2023-02-11T12:27:08;12.70;39.50
3842;DHT22;1936;47.074;15.336;2023-02-11T12:29:25;13.00;39.40
3842;DHT22;1936;47.074;15.336;2023-02-11T12:31:41;13.00;38.80
3842;DHT22;1936;47.074;15.336;2023-02-11T12:34:09;13.20;38.00
3842;DHT22;1936;47.074;15.336;2023-02-11T12:36:26;13.30;35.90
3842;DHT22;1936;47.074;15.336;2023-02-11T12:38:55;12.90;38.40
3842;DHT22;1936;47.074;15.336;2023-02-11T12:41:08;13.00;38.30
3842;DHT22;1936;47.074;15.336;2023-02-11T12:47:46;14.90;35.00
3842;DHT22;1936;47.074;15.336;2023-02-11T12:50:04;15.00;34.50
3842;DHT22;1936;47.074;15.336;2023-02-11T12:54:28;16.50;44.30
3842;DHT22;1936;47.074;15.336;2023-02-11T12:56:38;16.80;34.80
3842;DHT22;1936;47.074;15.336;2023-02-11T12:58:42;16.50;29.90
3842;DHT22;1936;47.074;15.336;2023-02-11T13:00:50;17.10;30.50
3842;DHT22;1936;47.074;15.336;2023-02-11T13:02:59;16.80;29.40
3842;DHT22;1936;47.074;15.336;2023-02-11T13:05:14;18.10;30.00
3842;DHT22;1936;47.074;15.336;2023-02-11T13:07:23;18.00;29.00
3842;DHT22;1936;47.074;15.336;2023-02-11T13:09:33;18.60;28.50
3842;DHT22;1936;47.074;15.336;2023-02-11T13:11:39;18.30;27.90
3842;DHT22;1936;47.074;15.336;2023-02-11T13:13:52;18.10;27.50
3842;DHT22;1936;47.074;15.336;2023-02-11T13:16:01;18.40;28.80
3842;DHT22;1936;47.074;15.336;2023-02-11T13:18:15;18.30;26.90
3842;DHT22;1936;47.074;15.336;2023-02-11T13:20:28;17.90;26.70
3842;DHT22;1936;47.074;15.336;2023-02-11T13:22:38;18.20;27.10
3842;DHT22;1936;47.074;15.336;2023-02-11T13:24:47;17.40;28.40
3842;DHT22;1936;47.074;15.336;2023-02-11T13:26:58;17.10;29.80
3842;DHT22;1936;47.074;15.336;2023-02-11T13:31:13;17.40;29.20
3842;DHT22;1936;47.074;15.336;2023-02-11T13:33:30;16.90;30.90
3842;DHT22;1936;47.074;15.336;2023-02-11T13:35:37;16.10;29.90
3842;DHT22;1936;47.074;15.336;2023-02-11T13:40:00;14.00;35.20
3842;DHT22;1936;47.074;15.336;2023-02-11T13:42:04;13.60;36.80
3842;DHT22;1936;47.074;15.336;2023-02-11T13:44:21;12.90;35.30
3842;DHT22;1936;47.074;15.336;2023-02-11T13:46:26;12.50;37.10
3842;DHT22;1936;47.074;15.336;2023-02-11T13:48:32;12.40;38.60
3842;DHT22;1936;47.074;15.336;2023-02-11T13:50:38;12.20;36.20
3842;DHT22;1936;47.074;15.336;2023-02-11T13:52:56;12.00;35.70
3842;DHT22;1936;47.074;15.336;2023-02-11T13:55:06;11.80;37.10
3842;DHT22;1936;47.074;15.336;2023-02-11T13:57:29;11.70;36.80
3842;DHT22;1936;47.074;15.336;2023-02-11T13:59:46;11.30;38.40
3842;DHT22;1936;47.074;15.336;2023-02-11T14:02:04;11.20;40.20
3842;DHT22;1936;47.074;15.336;2023-02-11T14:04:25;10.70;42.20
3842;DHT22;1936;47.074;15.336;2023-02-11T14:07:23;10.90;41.40
3842;DHT22;1936;47.074;15.336;2023-02-11T14:09:44;10.50;40.50
3842;DHT22;1936;47.074;15.336;2023-02-11T14:11:49;10.20;42.40
3842;DHT22;1936;47.074;15.336;2023-02-11T14:14:14;10.20;44.00
3842;DHT22;1936;47.074;15.336;2023-02-11T14:16:19;10.20;43.70
3842;DHT22;1936;47.074;15.336;2023-02-11T14:18:58;10.10;43.40
3842;DHT22;1936;47.074;15.336;2023-02-11T14:21:11;9.90;45.50
3842;DHT22;1936;47.074;15.336;2023-02-11T14:23:25;9.90;45.70
3842;DHT22;1936;47.074;15.336;2023-02-11T14:25:32;9.90;46.90
3842;DHT22;1936;47.074;15.336;2023-02-11T14:27:40;10.30;43.90
3842;DHT22;1936;47.074;15.336;2023-02-11T14:29:50;10.10;45.40